CheckWX is a tool to help pilots better visualize weather data.  It is not intended as a substitute for an official pre-flight weather briefing.

11:25:26 UTC

DTTX TAF
Sfax Thyna International Airport
Sfax, Tunisia
TAF DTTX 031100Z 0312/0412 04012KT 9999 SCT020 SCT030 TEMPO 0313/0321 4000 SHRA SCT023CB BECMG 0321/0323 35015G25KT

Apr-3@
12:00 UTC

Apr-3 @ 12:00 UTC

Apr-3@
21:00 UTC

Apr-3 @ 21:00 UTC

TAF DTTX 031100Z 0312/0412 04012KT 9999 SCT020 SCT030

Expired

Wind
  • 040° at 12 KTS
Cloud Levels
  • Scattered at 2,000' AGL
  • Scattered at 3,000' AGL

Apr-3@
13:00 UTC

Apr-3 @ 13:00 UTC

Apr-3@
21:00 UTC

Apr-3 @ 21:00 UTC

TEMPO 0313/0321 4000 SHRA SCT023CB

Expired

Conditions
Showers, Rain
Cloud Levels
  • Scattered at 2,300' AGL

Apr-3@
21:00 UTC

Apr-3 @ 21:00 UTC

Apr-4@
12:00 UTC

Apr-4 @ 12:00 UTC

BECMG 0321/0323 35015G25KT

Becoming

Becoming Conditions expected by Fri, Apr 3, 2020 @ 23:00 UTC

Wind
  • 350° at 15 KTS
  • {Gusting to 25 KTS
Cloud Levels
  • Scattered at 2,000' AGL
  • Scattered at 3,000' AGL